sensor_id;sensor_type;location;lat;lon;timestamp;temperature;humidity
22925;DHT22;11628;51.072;3.712;2022-12-18T00:00:59;-1.60;99.90
22925;DHT22;11628;51.072;3.712;2022-12-18T00:03:26;-1.70;99.90
22925;DHT22;11628;51.072;3.712;2022-12-18T00:05:52;-1.80;99.90
22925;DHT22;11628;51.072;3.712;2022-12-18T00:08:18;-1.90;99.90
22925;DHT22;11628;51.072;3.712;2022-12-18T00:10:44;-2.00;99.90
22925;DHT22;11628;51.072;3.712;2022-12-18T00:13:11;-2.00;99.90
22925;DHT22;11628;51.072;3.712;2022-12-18T00:15:37;-1.90;99.90
22925;DHT22;11628;51.072;3.712;2022-12-18T00:18:04;-1.90;99.90
22925;DHT22;11628;51.072;3.712;2022-12-18T00:20:30;-2.00;99.90
22925;DHT22;11628;51.072;3.712;2022-12-18T00:22:56;-2.10;99.90
22925;DHT22;11628;51.072;3.712;2022-12-18T00:25:22;-2.10;99.90
22925;DHT22;11628;51.072;3.712;2022-12-18T00:27:47;-2.10;99.90
22925;DHT22;11628;51.072;3.712;2022-12-18T00:30:14;-2.20;99.90
22925;DHT22;11628;51.072;3.712;2022-12-18T00:32:40;-2.20;99.90
22925;DHT22;11628;51.072;3.712;2022-12-18T00:35:06;-2.20;99.90
22925;DHT22;11628;51.072;3.712;2022-12-18T00:37:36;-2.20;99.90
22925;DHT22;11628;51.072;3.712;2022-12-18T00:40:02;-2.20;99.90
22925;DHT22;11628;51.072;3.712;2022-12-18T00:42:28;-2.30;99.90
22925;DHT22;11628;51.072;3.712;2022-12-18T00:45:12;-2.30;99.90
22925;DHT22;11628;51.072;3.712;2022-12-18T00:47:38;-2.40;99.90
22925;DHT22;11628;51.072;3.712;2022-12-18T00:50:04;-2.50;99.90
22925;DHT22;11628;51.072;3.712;2022-12-18T00:52:30;-2.50;99.90
22925;DHT22;11628;51.072;3.712;2022-12-18T00:54:55;-2.50;99.90
22925;DHT22;11628;51.072;3.712;2022-12-18T00:57:21;-2.50;99.90
22925;DHT22;11628;51.072;3.712;2022-12-18T00:59:47;-2.60;99.90
22925;DHT22;11628;51.072;3.712;2022-12-18T01:02:13;-2.50;99.90
22925;DHT22;11628;51.072;3.712;2022-12-18T01:04:38;-2.50;99.90
22925;DHT22;11628;51.072;3.712;2022-12-18T01:07:04;-2.60;99.90
22925;DHT22;11628;51.072;3.712;2022-12-18T01:09:30;-2.50;99.90
22925;DHT22;11628;51.072;3.712;2022-12-18T01:11:56;-2.60;99.90
22925;DHT22;11628;51.072;3.712;2022-12-18T01:14:21;-2.50;99.90
22925;DHT22;11628;51.072;3.712;2022-12-18T01:16:47;-2.60;99.90
22925;DHT22;11628;51.072;3.712;2022-12-18T01:19:13;-2.60;99.90
22925;DHT22;11628;51.072;3.712;2022-12-18T01:21:39;-2.60;99.90
22925;DHT22;11628;51.072;3.712;2022-12-18T01:24:05;-2.50;99.90
22925;DHT22;11628;51.072;3.712;2022-12-18T01:26:30;-2.50;99.90
22925;DHT22;11628;51.072;3.712;2022-12-18T01:28:56;-2.60;99.90
22925;DHT22;11628;51.072;3.712;2022-12-18T01:31:25;-2.50;99.90
22925;DHT22;11628;51.072;3.712;2022-12-18T01:33:51;-2.50;99.90
22925;DHT22;11628;51.072;3.712;2022-12-18T01:36:23;-2.50;99.90
22925;DHT22;11628;51.072;3.712;2022-12-18T01:38:50;-2.40;99.90
22925;DHT22;11628;51.072;3.712;2022-12-18T01:41:18;-2.50;99.90
22925;DHT22;11628;51.072;3.712;2022-12-18T01:46:10;-2.50;99.90
22925;DHT22;11628;51.072;3.712;2022-12-18T01:48:36;-2.50;99.90
22925;DHT22;11628;51.072;3.712;2022-12-18T01:51:03;-2.60;99.90
22925;DHT22;11628;51.072;3.712;2022-12-18T01:53:29;-2.50;99.90
22925;DHT22;11628;51.072;3.712;2022-12-18T01:55:57;-2.60;99.90
22925;DHT22;11628;51.072;3.712;2022-12-18T01:58:46;-2.70;99.90
22925;DHT22;11628;51.072;3.712;2022-12-18T02:01:14;-2.70;99.90
22925;DHT22;11628;51.072;3.712;2022-12-18T02:03:43;-2.70;99.90
22925;DHT22;11628;51.072;3.712;2022-12-18T02:06:33;-2.70;99.90
22925;DHT22;11628;51.072;3.712;2022-12-18T02:09:10;-2.70;99.90
22925;DHT22;11628;51.072;3.712;2022-12-18T02:17:20;-2.80;99.90
22925;DHT22;11628;51.072;3.712;2022-12-18T02:20:23;-2.80;99.90
22925;DHT22;11628;51.072;3.712;2022-12-18T02:28:13;-3.00;99.90
22925;DHT22;11628;51.072;3.712;2022-12-18T02:30:42;-2.90;99.90
22925;DHT22;11628;51.072;3.712;2022-12-18T02:33:11;-2.80;99.90
22925;DHT22;11628;51.072;3.712;2022-12-18T02:35:38;-2.80;99.90
22925;DHT22;11628;51.072;3.712;2022-12-18T02:38:06;-2.80;99.90
22925;DHT22;11628;51.072;3.712;2022-12-18T02:40:32;-2.80;99.90
22925;DHT22;11628;51.072;3.712;2022-12-18T02:43:09;-2.80;99.90
22925;DHT22;11628;51.072;3.712;2022-12-18T02:45:35;-2.80;99.90
22925;DHT22;11628;51.072;3.712;2022-12-18T02:48:01;-2.80;99.90
22925;DHT22;11628;51.072;3.712;2022-12-18T02:50:35;-2.70;99.90
22925;DHT22;11628;51.072;3.712;2022-12-18T02:58:11;-2.80;99.90
22925;DHT22;11628;51.072;3.712;2022-12-18T03:00:43;-2.90;99.90
22925;DHT22;11628;51.072;3.712;2022-12-18T03:03:18;-3.00;99.90
22925;DHT22;11628;51.072;3.712;2022-12-18T03:05:53;-3.10;99.90
22925;DHT22;11628;51.072;3.712;2022-12-18T03:08:30;-3.10;99.90
22925;DHT22;11628;51.072;3.712;2022-12-18T03:11:04;-3.10;99.90
22925;DHT22;11628;51.072;3.712;2022-12-18T03:13:54;-3.10;99.90
22925;DHT22;11628;51.072;3.712;2022-12-18T03:16:28;-3.10;99.90
22925;DHT22;11628;51.072;3.712;2022-12-18T03:19:16;-3.10;99.90
22925;DHT22;11628;51.072;3.712;2022-12-18T03:21:46;-3.10;99.90
22925;DHT22;11628;51.072;3.712;2022-12-18T03:24:14;-3.10;99.90
22925;DHT22;11628;51.072;3.712;2022-12-18T03:26:46;-3.10;99.90
22925;DHT22;11628;51.072;3.712;2022-12-18T03:31:58;-3.00;99.90
22925;DHT22;11628;51.072;3.712;2022-12-18T03:34:30;-3.00;99.90
22925;DHT22;11628;51.072;3.712;2022-12-18T03:36:57;-3.00;99.90
22925;DHT22;11628;51.072;3.712;2022-12-18T03:39:23;-2.90;99.90
22925;DHT22;11628;51.072;3.712;2022-12-18T03:41:55;-2.90;99.90
22925;DHT22;11628;51.072;3.712;2022-12-18T03:47:25;-3.10;99.90
22925;DHT22;11628;51.072;3.712;2022-12-18T03:50:15;-3.20;99.90
22925;DHT22;11628;51.072;3.712;2022-12-18T03:52:49;-3.30;99.90
22925;DHT22;11628;51.072;3.712;2022-12-18T03:55:18;-3.40;99.90
22925;DHT22;11628;51.072;3.712;2022-12-18T03:57:45;-3.40;99.90
22925;DHT22;11628;51.072;3.712;2022-12-18T04:00:14;-3.30;99.90
22925;DHT22;11628;51.072;3.712;2022-12-18T04:02:48;-3.30;99.90
22925;DHT22;11628;51.072;3.712;2022-12-18T04:05:17;-3.40;99.90
22925;DHT22;11628;51.072;3.712;2022-12-18T04:07:47;-3.30;99.90
22925;DHT22;11628;51.072;3.712;2022-12-18T04:10:14;-3.40;99.90
22925;DHT22;11628;51.072;3.712;2022-12-18T04:12:41;-3.50;99.90
22925;DHT22;11628;51.072;3.712;2022-12-18T04:15:08;-3.50;99.90
22925;DHT22;11628;51.072;3.712;2022-12-18T04:17:34;-3.50;99.90
22925;DHT22;11628;51.072;3.712;2022-12-18T04:20:00;-3.40;99.90
22925;DHT22;11628;51.072;3.712;2022-12-18T04:22:27;-3.60;99.90
22925;DHT22;11628;51.072;3.712;2022-12-18T04:24:53;-3.60;99.90
22925;DHT22;11628;51.072;3.712;2022-12-18T04:27:19;-3.60;99.90
22925;DHT22;11628;51.072;3.712;2022-12-18T04:29:44;-3.60;99.90
22925;DHT22;11628;51.072;3.712;2022-12-18T04:32:10;-3.70;99.90
22925;DHT22;11628;51.072;3.712;2022-12-18T04:34:36;-3.70;99.90
22925;DHT22;11628;51.072;3.712;2022-12-18T04:37:02;-3.50;99.90
22925;DHT22;11628;51.072;3.712;2022-12-18T04:39:27;-3.50;99.90
22925;DHT22;11628;51.072;3.712;2022-12-18T04:41:53;-3.40;99.90
22925;DHT22;11628;51.072;3.712;2022-12-18T04:44:19;-3.40;99.90
22925;DHT22;11628;51.072;3.712;2022-12-18T04:46:44;-3.50;99.90
22925;DHT22;11628;51.072;3.712;2022-12-18T04:49:10;-3.50;99.90
22925;DHT22;11628;51.072;3.712;2022-12-18T04:51:36;-3.50;99.90
22925;DHT22;11628;51.072;3.712;2022-12-18T04:54:02;-3.60;99.90
22925;DHT22;11628;51.072;3.712;2022-12-18T04:56:30;-3.60;99.90
22925;DHT22;11628;51.072;3.712;2022-12-18T04:58:56;-3.60;99.90
22925;DHT22;11628;51.072;3.712;2022-12-18T05:01:21;-3.50;99.90
22925;DHT22;11628;51.072;3.712;2022-12-18T05:03:47;-3.50;99.90
22925;DHT22;11628;51.072;3.712;2022-12-18T05:06:14;-3.40;99.90
22925;DHT22;11628;51.072;3.712;2022-12-18T05:08:40;-3.40;99.90
22925;DHT22;11628;51.072;3.712;2022-12-18T05:11:08;-3.40;99.90
22925;DHT22;11628;51.072;3.712;2022-12-18T05:13:35;-3.40;99.90
22925;DHT22;11628;51.072;3.712;2022-12-18T05:16:01;-3.40;99.90
22925;DHT22;11628;51.072;3.712;2022-12-18T05:18:28;-3.40;99.90
22925;DHT22;11628;51.072;3.712;2022-12-18T05:20:54;-3.40;99.90
22925;DHT22;11628;51.072;3.712;2022-12-18T05:23:21;-3.40;99.90
22925;DHT22;11628;51.072;3.712;2022-12-18T05:25:55;-3.30;99.90
22925;DHT22;11628;51.072;3.712;2022-12-18T05:28:24;-3.40;99.90
22925;DHT22;11628;51.072;3.712;2022-12-18T05:30:50;-3.40;99.90
22925;DHT22;11628;51.072;3.712;2022-12-18T05:33:17;-3.40;99.90
22925;DHT22;11628;51.072;3.712;2022-12-18T05:35:44;-3.40;99.90
22925;DHT22;11628;51.072;3.712;2022-12-18T05:38:10;-3.40;99.90
22925;DHT22;11628;51.072;3.712;2022-12-18T05:40:36;-3.40;99.90
22925;DHT22;11628;51.072;3.712;2022-12-18T05:43:02;-3.40;99.90
22925;DHT22;11628;51.072;3.712;2022-12-18T05:45:28;-3.50;99.90
22925;DHT22;11628;51.072;3.712;2022-12-18T05:47:54;-3.40;99.90
22925;DHT22;11628;51.072;3.712;2022-12-18T05:50:19;-3.50;99.90
22925;DHT22;11628;51.072;3.712;2022-12-18T05:52:45;-3.50;99.90
22925;DHT22;11628;51.072;3.712;2022-12-18T05:55:11;-3.50;99.90
22925;DHT22;11628;51.072;3.712;2022-12-18T05:57:36;-3.50;99.90
22925;DHT22;11628;51.072;3.712;2022-12-18T06:00:03;-3.50;99.90
22925;DHT22;11628;51.072;3.712;2022-12-18T06:02:28;-3.40;99.90
22925;DHT22;11628;51.072;3.712;2022-12-18T06:04:54;-3.20;99.90
22925;DHT22;11628;51.072;3.712;2022-12-18T06:07:20;-3.10;99.90
22925;DHT22;11628;51.072;3.712;2022-12-18T06:09:45;-3.10;99.90
22925;DHT22;11628;51.072;3.712;2022-12-18T06:12:11;-3.10;99.90
22925;DHT22;11628;51.072;3.712;2022-12-18T06:14:37;-3.20;99.90
22925;DHT22;11628;51.072;3.712;2022-12-18T06:17:02;-3.30;99.90
22925;DHT22;11628;51.072;3.712;2022-12-18T06:19:28;-3.30;99.90
22925;DHT22;11628;51.072;3.712;2022-12-18T06:21:54;-3.40;99.90
22925;DHT22;11628;51.072;3.712;2022-12-18T06:24:19;-3.40;99.90
22925;DHT22;11628;51.072;3.712;2022-12-18T06:26:46;-3.40;99.90
22925;DHT22;11628;51.072;3.712;2022-12-18T06:29:11;-3.30;99.90
22925;DHT22;11628;51.072;3.712;2022-12-18T06:31:37;-3.20;99.90
22925;DHT22;11628;51.072;3.712;2022-12-18T06:34:03;-3.20;99.90
22925;DHT22;11628;51.072;3.712;2022-12-18T06:36:29;-3.20;99.90
22925;DHT22;11628;51.072;3.712;2022-12-18T06:38:56;-3.30;99.90
22925;DHT22;11628;51.072;3.712;2022-12-18T06:41:22;-3.30;99.90
22925;DHT22;11628;51.072;3.712;2022-12-18T06:43:48;-3.30;99.90
22925;DHT22;11628;51.072;3.712;2022-12-18T06:46:14;-3.40;99.90
22925;DHT22;11628;51.072;3.712;2022-12-18T06:48:40;-3.30;99.90
22925;DHT22;11628;51.072;3.712;2022-12-18T06:51:06;-3.40;99.90
22925;DHT22;11628;51.072;3.712;2022-12-18T06:53:32;-3.30;99.90
22925;DHT22;11628;51.072;3.712;2022-12-18T06:56:03;-3.30;99.90
22925;DHT22;11628;51.072;3.712;2022-12-18T06:58:29;-3.30;99.90
22925;DHT22;11628;51.072;3.712;2022-12-18T07:01:00;-3.20;99.90
22925;DHT22;11628;51.072;3.712;2022-12-18T07:03:26;-3.10;99.90
22925;DHT22;11628;51.072;3.712;2022-12-18T07:05:51;-3.20;99.90
22925;DHT22;11628;51.072;3.712;2022-12-18T07:08:18;-3.20;99.90
22925;DHT22;11628;51.072;3.712;2022-12-18T07:10:44;-3.20;99.90
22925;DHT22;11628;51.072;3.712;2022-12-18T07:13:10;-3.20;99.90
22925;DHT22;11628;51.072;3.712;2022-12-18T07:15:36;-3.30;99.90
22925;DHT22;11628;51.072;3.712;2022-12-18T07:18:02;-3.30;99.90
22925;DHT22;11628;51.072;3.712;2022-12-18T07:20:27;-3.30;99.90
22925;DHT22;11628;51.072;3.712;2022-12-18T07:22:53;-3.30;99.90
22925;DHT22;11628;51.072;3.712;2022-12-18T07:25:19;-3.20;99.90
22925;DHT22;11628;51.072;3.712;2022-12-18T07:27:44;-3.20;99.90
22925;DHT22;11628;51.072;3.712;2022-12-18T07:30:10;-3.30;99.90
22925;DHT22;11628;51.072;3.712;2022-12-18T07:32:36;-3.20;99.90
22925;DHT22;11628;51.072;3.712;2022-12-18T07:35:02;-3.20;99.90
22925;DHT22;11628;51.072;3.712;2022-12-18T07:37:28;-3.10;99.90
22925;DHT22;11628;51.072;3.712;2022-12-18T07:39:53;-3.10;99.90
22925;DHT22;11628;51.072;3.712;2022-12-18T07:42:19;-3.10;99.90
22925;DHT22;11628;51.072;3.712;2022-12-18T07:44:57;-3.10;99.90
22925;DHT22;11628;51.072;3.712;2022-12-18T07:47:23;-3.10;99.90
22925;DHT22;11628;51.072;3.712;2022-12-18T07:49:49;-3.10;99.90
22925;DHT22;11628;51.072;3.712;2022-12-18T07:52:16;-3.20;99.90
22925;DHT22;11628;51.072;3.712;2022-12-18T07:54:41;-3.10;99.90
22925;DHT22;11628;51.072;3.712;2022-12-18T07:57:08;-3.20;99.90
22925;DHT22;11628;51.072;3.712;2022-12-18T07:59:34;-3.20;99.90
22925;DHT22;11628;51.072;3.712;2022-12-18T08:02:00;-3.20;99.90
22925;DHT22;11628;51.072;3.712;2022-12-18T08:04:26;-3.10;99.90
22925;DHT22;11628;51.072;3.712;2022-12-18T08:06:52;-3.20;99.90
22925;DHT22;11628;51.072;3.712;2022-12-18T08:09:18;-3.10;99.90
22925;DHT22;11628;51.072;3.712;2022-12-18T08:11:43;-3.10;99.90
22925;DHT22;11628;51.072;3.712;2022-12-18T08:14:10;-3.00;99.90
22925;DHT22;11628;51.072;3.712;2022-12-18T08:16:35;-2.90;99.90
22925;DHT22;11628;51.072;3.712;2022-12-18T08:19:02;-2.90;99.90
22925;DHT22;11628;51.072;3.712;2022-12-18T08:21:29;-2.80;99.90
22925;DHT22;11628;51.072;3.712;2022-12-18T08:23:57;-2.70;99.90
22925;DHT22;11628;51.072;3.712;2022-12-18T08:26:25;-2.50;99.90
22925;DHT22;11628;51.072;3.712;2022-12-18T08:28:54;-2.30;99.90
22925;DHT22;11628;51.072;3.712;2022-12-18T08:31:20;-2.00;99.90
22925;DHT22;11628;51.072;3.712;2022-12-18T08:33:49;-1.90;99.90
22925;DHT22;11628;51.072;3.712;2022-12-18T08:36:15;-2.00;99.90
22925;DHT22;11628;51.072;3.712;2022-12-18T08:38:41;-2.00;99.90
22925;DHT22;11628;51.072;3.712;2022-12-18T08:41:09;-2.00;99.90
22925;DHT22;11628;51.072;3.712;2022-12-18T08:43:35;-2.00;99.90
22925;DHT22;11628;51.072;3.712;2022-12-18T08:46:20;-2.10;99.90
22925;DHT22;11628;51.072;3.712;2022-12-18T08:48:46;-2.20;99.90
22925;DHT22;11628;51.072;3.712;2022-12-18T08:51:12;-2.20;99.90
22925;DHT22;11628;51.072;3.712;2022-12-18T08:53:38;-2.10;99.90
22925;DHT22;11628;51.072;3.712;2022-12-18T08:56:04;-2.10;99.90
22925;DHT22;11628;51.072;3.712;2022-12-18T08:58:30;-2.00;99.90
22925;DHT22;11628;51.072;3.712;2022-12-18T09:01:00;-1.90;99.90
22925;DHT22;11628;51.072;3.712;2022-12-18T09:03:27;-2.00;99.90
22925;DHT22;11628;51.072;3.712;2022-12-18T09:05:53;-2.10;99.90
22925;DHT22;11628;51.072;3.712;2022-12-18T09:08:19;-2.20;99.90
22925;DHT22;11628;51.072;3.712;2022-12-18T09:10:46;-2.10;99.90
22925;DHT22;11628;51.072;3.712;2022-12-18T09:13:12;-2.00;99.90
22925;DHT22;11628;51.072;3.712;2022-12-18T09:15:47;-1.90;99.90
22925;DHT22;11628;51.072;3.712;2022-12-18T09:18:15;-1.80;99.90
22925;DHT22;11628;51.072;3.712;2022-12-18T09:20:41;-1.70;99.90
22925;DHT22;11628;51.072;3.712;2022-12-18T09:23:07;-1.70;99.90
22925;DHT22;11628;51.072;3.712;2022-12-18T09:25:33;-1.70;99.90
22925;DHT22;11628;51.072;3.712;2022-12-18T09:28:04;-1.70;99.90
22925;DHT22;11628;51.072;3.712;2022-12-18T09:30:30;-1.70;99.90
22925;DHT22;11628;51.072;3.712;2022-12-18T09:32:58;-1.70;99.90
22925;DHT22;11628;51.072;3.712;2022-12-18T09:35:24;-1.60;99.90
22925;DHT22;11628;51.072;3.712;2022-12-18T09:37:50;-1.60;99.90
22925;DHT22;11628;51.072;3.712;2022-12-18T09:40:19;-1.50;99.90
22925;DHT22;11628;51.072;3.712;2022-12-18T09:42:54;-1.40;99.90
22925;DHT22;11628;51.072;3.712;2022-12-18T09:45:22;-1.20;99.90
22925;DHT22;11628;51.072;3.712;2022-12-18T09:47:51;-1.20;99.90
22925;DHT22;11628;51.072;3.712;2022-12-18T09:50:32;-1.10;99.90
22925;DHT22;11628;51.072;3.712;2022-12-18T09:53:04;-1.00;99.90
22925;DHT22;11628;51.072;3.712;2022-12-18T09:55:37;-0.80;99.90
22925;DHT22;11628;51.072;3.712;2022-12-18T09:58:26;-0.60;99.90
22925;DHT22;11628;51.072;3.712;2022-12-18T10:00:53;-0.60;99.90
22925;DHT22;11628;51.072;3.712;2022-12-18T10:03:20;-0.60;99.90
22925;DHT22;11628;51.072;3.712;2022-12-18T10:06:04;-0.60;99.90
22925;DHT22;11628;51.072;3.712;2022-12-18T10:14:32;-1.00;99.90
22925;DHT22;11628;51.072;3.712;2022-12-18T10:20:16;-1.00;99.90
22925;DHT22;11628;51.072;3.712;2022-12-18T10:26:05;-0.80;99.90
22925;DHT22;11628;51.072;3.712;2022-12-18T10:28:35;-0.70;99.90
22925;DHT22;11628;51.072;3.712;2022-12-18T10:31:01;-0.70;99.90
22925;DHT22;11628;51.072;3.712;2022-12-18T10:33:30;-0.70;99.90
22925;DHT22;11628;51.072;3.712;2022-12-18T10:35:57;-0.60;99.90
22925;DHT22;11628;51.072;3.712;2022-12-18T10:38:26;-0.80;99.90
22925;DHT22;11628;51.072;3.712;2022-12-18T10:43:23;-1.00;99.90
22925;DHT22;11628;51.072;3.712;2022-12-18T10:48:28;-1.10;99.90
22925;DHT22;11628;51.072;3.712;2022-12-18T10:50:54;-1.00;99.90
22925;DHT22;11628;51.072;3.712;2022-12-18T10:53:24;-1.10;99.90
22925;DHT22;11628;51.072;3.712;2022-12-18T10:55:53;-1.10;99.90
22925;DHT22;11628;51.072;3.712;2022-12-18T10:58:27;-1.00;99.90
22925;DHT22;11628;51.072;3.712;2022-12-18T11:01:13;-1.00;99.90
22925;DHT22;11628;51.072;3.712;2022-12-18T11:06:12;-0.80;99.90
22925;DHT22;11628;51.072;3.712;2022-12-18T11:08:38;-0.70;99.90
22925;DHT22;11628;51.072;3.712;2022-12-18T11:11:22;-0.70;99.90
22925;DHT22;11628;51.072;3.712;2022-12-18T11:14:02;-0.50;99.90
22925;DHT22;11628;51.072;3.712;2022-12-18T11:16:30;-0.50;99.90
22925;DHT22;11628;51.072;3.712;2022-12-18T11:21:56;-0.60;99.90
22925;DHT22;11628;51.072;3.712;2022-12-18T11:24:35;-0.50;99.90
22925;DHT22;11628;51.072;3.712;2022-12-18T11:27:03;-0.50;99.90
22925;DHT22;11628;51.072;3.712;2022-12-18T11:29:38;-0.50;99.90
22925;DHT22;11628;51.072;3.712;2022-12-18T11:32:43;-0.40;99.90
22925;DHT22;11628;51.072;3.712;2022-12-18T11:37:53;-0.40;99.90
22925;DHT22;11628;51.072;3.712;2022-12-18T11:40:32;-0.30;99.90
22925;DHT22;11628;51.072;3.712;2022-12-18T11:43:07;-0.20;99.90
22925;DHT22;11628;51.072;3.712;2022-12-18T11:46:23;0.00;99.90
22925;DHT22;11628;51.072;3.712;2022-12-18T11:48:38;0.10;99.90
22925;DHT22;11628;51.072;3.712;2022-12-18T11:51:13;0.40;99.90
22925;DHT22;11628;51.072;3.712;2022-12-18T11:53:40;0.50;99.90
22925;DHT22;11628;51.072;3.712;2022-12-18T11:56:12;0.50;99.90
22925;DHT22;11628;51.072;3.712;2022-12-18T11:58:47;0.30;99.90
22925;DHT22;11628;51.072;3.712;2022-12-18T12:09:04;0.20;99.90
22925;DHT22;11628;51.072;3.712;2022-12-18T12:12:35;0.20;99.90
22925;DHT22;11628;51.072;3.712;2022-12-18T12:17:56;0.30;99.90
22925;DHT22;11628;51.072;3.712;2022-12-18T12:26:06;0.40;99.90
22925;DHT22;11628;51.072;3.712;2022-12-18T12:34:15;0.50;99.90
22925;DHT22;11628;51.072;3.712;2022-12-18T12:39:36;0.50;99.90
22925;DHT22;11628;51.072;3.712;2022-12-18T12:42:04;0.70;99.90
22925;DHT22;11628;51.072;3.712;2022-12-18T12:44:55;0.80;99.90
22925;DHT22;11628;51.072;3.712;2022-12-18T12:47:28;0.80;99.90
22925;DHT22;11628;51.072;3.712;2022-12-18T12:49:56;1.10;99.90
22925;DHT22;11628;51.072;3.712;2022-12-18T12:54:59;0.80;99.90
22925;DHT22;11628;51.072;3.712;2022-12-18T12:57:37;0.80;99.90
22925;DHT22;11628;51.072;3.712;2022-12-18T13:00:18;0.90;99.90
22925;DHT22;11628;51.072;3.712;2022-12-18T13:02:56;0.80;99.90
22925;DHT22;11628;51.072;3.712;2022-12-18T13:05:34;0.90;99.90
22925;DHT22;11628;51.072;3.712;2022-12-18T13:08:07;1.00;99.90
22925;DHT22;11628;51.072;3.712;2022-12-18T13:10:41;0.90;99.90
22925;DHT22;11628;51.072;3.712;2022-12-18T13:23:18;1.00;99.90
22925;DHT22;11628;51.072;3.712;2022-12-18T13:25:44;0.90;99.90
22925;DHT22;11628;51.072;3.712;2022-12-18T13:28:21;0.90;99.90
22925;DHT22;11628;51.072;3.712;2022-12-18T13:30:51;1.00;99.90
22925;DHT22;11628;51.072;3.712;2022-12-18T13:43:48;0.70;99.90
22925;DHT22;11628;51.072;3.712;2022-12-18T13:48:57;0.70;99.90
22925;DHT22;11628;51.072;3.712;2022-12-18T13:51:24;0.70;99.90
22925;DHT22;11628;51.072;3.712;2022-12-18T13:53:53;0.70;99.90
22925;DHT22;11628;51.072;3.712;2022-12-18T13:56:29;0.70;99.90
22925;DHT22;11628;51.072;3.712;2022-12-18T14:01:57;0.60;99.90
22925;DHT22;11628;51.072;3.712;2022-12-18T14:04:30;0.70;99.90
22925;DHT22;11628;51.072;3.712;2022-12-18T14:09:34;0.60;99.90
22925;DHT22;11628;51.072;3.712;2022-12-18T14:12:01;0.70;99.90
22925;DHT22;11628;51.072;3.712;2022-12-18T14:14:47;0.70;99.90
22925;DHT22;11628;51.072;3.712;2022-12-18T14:17:15;0.70;99.90
22925;DHT22;11628;51.072;3.712;2022-12-18T14:19:43;0.70;99.90
22925;DHT22;11628;51.072;3.712;2022-12-18T14:22:24;0.70;99.90
22925;DHT22;11628;51.072;3.712;2022-12-18T14:27:47;0.70;99.90
22925;DHT22;11628;51.072;3.712;2022-12-18T14:30:32;0.70;99.90
22925;DHT22;11628;51.072;3.712;2022-12-18T14:38:27;0.70;99.90
22925;DHT22;11628;51.072;3.712;2022-12-18T14:40:57;0.70;99.90
22925;DHT22;11628;51.072;3.712;2022-12-18T14:43:24;0.70;99.90
22925;DHT22;11628;51.072;3.712;2022-12-18T14:45:50;0.70;99.90
22925;DHT22;11628;51.072;3.712;2022-12-18T14:48:23;0.70;99.90
22925;DHT22;11628;51.072;3.712;2022-12-18T14:51:07;0.80;99.90
22925;DHT22;11628;51.072;3.712;2022-12-18T14:53:42;0.80;99.90
22925;DHT22;11628;51.072;3.712;2022-12-18T15:01:23;0.80;99.90
22925;DHT22;11628;51.072;3.712;2022-12-18T15:03:51;0.70;99.90
22925;DHT22;11628;51.072;3.712;2022-12-18T15:06:37;0.80;99.90
22925;DHT22;11628;51.072;3.712;2022-12-18T15:09:25;0.90;99.90
22925;DHT22;11628;51.072;3.712;2022-12-18T15:12:00;0.80;99.90
22925;DHT22;11628;51.072;3.712;2022-12-18T15:14:39;0.80;99.90
22925;DHT22;11628;51.072;3.712;2022-12-18T15:17:20;0.80;99.90
22925;DHT22;11628;51.072;3.712;2022-12-18T15:19:48;0.80;99.90
22925;DHT22;11628;51.072;3.712;2022-12-18T15:22:29;0.90;99.90
22925;DHT22;11628;51.072;3.712;2022-12-18T15:24:57;0.90;99.90
22925;DHT22;11628;51.072;3.712;2022-12-18T15:27:31;0.90;99.90
22925;DHT22;11628;51.072;3.712;2022-12-18T15:30:24;0.90;99.90
22925;DHT22;11628;51.072;3.712;2022-12-18T15:32:51;0.90;99.90
22925;DHT22;11628;51.072;3.712;2022-12-18T15:35:24;1.10;99.90
22925;DHT22;11628;51.072;3.712;2022-12-18T15:37:51;1.00;99.90
22925;DHT22;11628;51.072;3.712;2022-12-18T15:40:23;1.00;99.90
22925;DHT22;11628;51.072;3.712;2022-12-18T15:42:53;1.00;99.90
22925;DHT22;11628;51.072;3.712;2022-12-18T15:45:38;0.90;99.90
22925;DHT22;11628;51.072;3.712;2022-12-18T15:48:20;1.00;99.90
22925;DHT22;11628;51.072;3.712;2022-12-18T15:50:46;1.00;99.90
22925;DHT22;11628;51.072;3.712;2022-12-18T15:53:12;1.10;99.90
22925;DHT22;11628;51.072;3.712;2022-12-18T15:55:38;1.10;99.90
22925;DHT22;11628;51.072;3.712;2022-12-18T15:58:22;1.10;99.90
22925;DHT22;11628;51.072;3.712;2022-12-18T16:00:47;1.10;99.90
22925;DHT22;11628;51.072;3.712;2022-12-18T16:03:13;1.10;99.90
22925;DHT22;11628;51.072;3.712;2022-12-18T16:05:39;1.20;99.90
22925;DHT22;11628;51.072;3.712;2022-12-18T16:08:05;1.20;99.90
22925;DHT22;11628;51.072;3.712;2022-12-18T16:10:30;1.20;99.90
22925;DHT22;11628;51.072;3.712;2022-12-18T16:12:56;1.20;99.90
22925;DHT22;11628;51.072;3.712;2022-12-18T16:15:22;1.20;99.90
22925;DHT22;11628;51.072;3.712;2022-12-18T16:17:48;1.30;99.90
22925;DHT22;11628;51.072;3.712;2022-12-18T16:20:19;1.30;99.90
22925;DHT22;11628;51.072;3.712;2022-12-18T16:22:48;1.40;99.90
22925;DHT22;11628;51.072;3.712;2022-12-18T16:25:19;1.50;99.90
22925;DHT22;11628;51.072;3.712;2022-12-18T16:27:48;1.40;99.90
22925;DHT22;11628;51.072;3.712;2022-12-18T16:30:16;1.40;99.90
22925;DHT22;11628;51.072;3.712;2022-12-18T16:32:42;1.40;99.90
22925;DHT22;11628;51.072;3.712;2022-12-18T16:35:10;1.40;99.90
22925;DHT22;11628;51.072;3.712;2022-12-18T16:37:37;1.40;99.90
22925;DHT22;11628;51.072;3.712;2022-12-18T16:40:03;1.40;99.90
22925;DHT22;11628;51.072;3.712;2022-12-18T16:42:28;1.40;99.90
22925;DHT22;11628;51.072;3.712;2022-12-18T16:44:54;1.50;99.90
22925;DHT22;11628;51.072;3.712;2022-12-18T16:47:20;1.40;99.90
22925;DHT22;11628;51.072;3.712;2022-12-18T16:49:46;1.40;99.90
22925;DHT22;11628;51.072;3.712;2022-12-18T16:52:12;1.50;99.90
22925;DHT22;11628;51.072;3.712;2022-12-18T16:54:38;1.60;99.90
22925;DHT22;11628;51.072;3.712;2022-12-18T16:57:04;1.60;99.90
22925;DHT22;11628;51.072;3.712;2022-12-18T16:59:30;1.50;99.90
22925;DHT22;11628;51.072;3.712;2022-12-18T17:01:56;1.60;99.90
22925;DHT22;11628;51.072;3.712;2022-12-18T17:04:21;1.50;99.90
22925;DHT22;11628;51.072;3.712;2022-12-18T17:06:47;1.50;99.90
22925;DHT22;11628;51.072;3.712;2022-12-18T17:09:19;1.40;99.90
22925;DHT22;11628;51.072;3.712;2022-12-18T17:11:49;1.30;99.90
22925;DHT22;11628;51.072;3.712;2022-12-18T17:14:18;1.30;99.90
22925;DHT22;11628;51.072;3.712;2022-12-18T17:16:45;1.30;99.90
22925;DHT22;11628;51.072;3.712;2022-12-18T17:19:11;1.30;99.90
22925;DHT22;11628;51.072;3.712;2022-12-18T17:21:37;1.30;99.90
22925;DHT22;11628;51.072;3.712;2022-12-18T17:24:03;1.20;99.90
22925;DHT22;11628;51.072;3.712;2022-12-18T17:26:29;1.20;99.90
22925;DHT22;11628;51.072;3.712;2022-12-18T17:28:56;1.20;99.90
22925;DHT22;11628;51.072;3.712;2022-12-18T17:31:24;1.20;99.90
22925;DHT22;11628;51.072;3.712;2022-12-18T17:33:50;1.20;99.90
22925;DHT22;11628;51.072;3.712;2022-12-18T17:36:16;1.30;99.90
22925;DHT22;11628;51.072;3.712;2022-12-18T17:38:43;1.20;99.90
22925;DHT22;11628;51.072;3.712;2022-12-18T17:41:14;1.10;99.90
22925;DHT22;11628;51.072;3.712;2022-12-18T17:43:39;1.10;99.90
22925;DHT22;11628;51.072;3.712;2022-12-18T17:46:11;1.10;99.90
22925;DHT22;11628;51.072;3.712;2022-12-18T17:48:37;1.10;99.90